Time;durP1;ratioP1;P1;durP2;ratioP2;P2;SDS_P1;SDS_P2;PMS_P1;PMS_P2;Temp;Humidity;BMP_temperature;BMP_pressure;BME280_temperature;BME280_humidity;BME280_pressure;Samples;Min_cycle;Max_cycle;Signal;HPM_P1;HPM_P2
2023/06/16 00:01:14;;;;;;;8.93;8.02;;;11.10;99.90;;;;;;5029182;28;20467;-82
2023/06/16 00:03:41;;;;;;;8.63;7.82;;;11.10;99.90;;;;;;5029215;28;20028;-81
2023/06/16 00:06:13;;;;;;;9.18;8.20;;;11.20;99.90;;;;;;5028883;28;20038;-82
2023/06/16 00:08:46;;;;;;;8.15;7.32;;;11.20;99.90;;;;;;5030327;28;20113;-82
2023/06/16 00:11:14;;;;;;;9.60;8.60;;;11.10;99.90;;;;;;5028788;28;20383;-82
2023/06/16 00:13:39;;;;;;;9.10;8.20;;;11.10;99.90;;;;;;5028724;28;20025;-82
2023/06/16 00:16:05;;;;;;;10.30;7.72;;;11.10;99.90;;;;;;5028912;28;20714;-81
2023/06/16 00:18:31;;;;;;;8.07;7.28;;;11.00;99.90;;;;;;5030126;28;20104;-81
2023/06/16 00:21:00;;;;;;;10.10;7.70;;;11.00;99.90;;;;;;5028901;28;20450;-82
2023/06/16 00:23:26;;;;;;;8.80;7.82;;;11.00;99.90;;;;;;5028842;28;20021;-81
2023/06/16 00:25:52;;;;;;;10.60;8.73;;;10.90;99.90;;;;;;5028737;28;20048;-81
2023/06/16 00:28:17;;;;;;;8.90;8.00;;;10.90;99.90;;;;;;5028736;28;20025;-81
2023/06/16 00:30:43;;;;;;;9.38;7.78;;;10.90;99.90;;;;;;5028787;28;20025;-81
2023/06/16 00:33:10;;;;;;;9.35;7.93;;;10.80;99.90;;;;;;5028677;28;20391;-81
2023/06/16 00:35:35;;;;;;;7.93;6.57;;;10.80;99.90;;;;;;5030239;28;20367;-81
2023/06/16 00:38:01;;;;;;;7.63;6.18;;;10.70;99.90;;;;;;5033417;28;20028;-81
2023/06/16 00:40:27;;;;;;;7.72;6.97;;;10.70;99.90;;;;;;5033391;28;20030;-81
2023/06/16 00:42:57;;;;;;;8.35;7.40;;;10.60;99.90;;;;;;5033361;28;20467;-80
2023/06/16 00:45:23;;;;;;;9.82;8.82;;;10.70;99.90;;;;;;5033503;28;20021;-81
2023/06/16 00:47:51;;;;;;;9.20;8.30;;;10.70;99.90;;;;;;5033089;28;20032;-81
2023/06/16 00:50:20;;;;;;;9.05;7.93;;;10.70;99.90;;;;;;5033118;28;20140;-81
2023/06/16 00:52:45;;;;;;;8.85;7.47;;;10.70;99.90;;;;;;5031785;28;20390;-81
2023/06/16 00:55:12;;;;;;;8.35;7.55;;;10.70;99.90;;;;;;5031881;28;20026;-81
2023/06/16 00:57:39;;;;;;;8.52;7.53;;;10.70;99.90;;;;;;5031661;28;20041;-82
2023/06/16 01:00:07;;;;;;;8.25;7.35;;;10.70;99.90;;;;;;5032929;28;20028;-81
2023/06/16 01:02:36;;;;;;;9.07;8.18;;;10.70;99.90;;;;;;5032749;28;20036;-80
2023/06/16 01:05:02;;;;;;;9.95;8.93;;;10.70;99.90;;;;;;5032700;28;20033;-82
2023/06/16 01:07:50;;;;;;;12.75;8.57;;;10.70;99.90;;;;;;5031567;28;20071;-82
2023/06/16 01:10:33;;;;;;;11.25;8.32;;;10.70;99.90;;;;;;5031543;28;20037;-82
2023/06/16 01:13:11;;;;;;;10.55;8.20;;;10.60;99.90;;;;;;5031490;28;20386;-81
2023/06/16 01:15:39;;;;;;;8.20;7.10;;;10.60;99.90;;;;;;5026916;28;20057;-81
2023/06/16 01:18:06;;;;;;;9.93;7.35;;;10.60;99.90;;;;;;5012977;28;20109;-82
2023/06/16 01:20:57;;;;;;;7.25;6.10;;;10.50;99.90;;;;;;5011796;28;20083;-82
2023/06/16 01:23:52;;;;;;;10.18;8.10;;;10.50;99.90;;;;;;5011777;28;20026;-82
2023/06/16 01:26:22;;;;;;;8.52;7.20;;;10.50;99.90;;;;;;5013030;28;20030;-82
2023/06/16 01:28:49;;;;;;;7.68;6.88;;;10.50;99.90;;;;;;5011758;28;20022;-82
2023/06/16 01:31:17;;;;;;;8.48;7.68;;;10.40;99.90;;;;;;5011667;28;20413;-82
2023/06/16 01:33:45;;;;;;;8.48;7.20;;;10.40;99.90;;;;;;5013028;28;20039;-82
2023/06/16 01:36:13;;;;;;;8.57;7.78;;;10.40;99.90;;;;;;5012630;28;20030;-82
2023/06/16 01:38:41;;;;;;;7.07;6.45;;;10.40;99.90;;;;;;5012658;28;20100;-82
2023/06/16 01:41:07;;;;;;;8.00;7.20;;;10.40;99.90;;;;;;5011457;28;20078;-82
2023/06/16 01:43:34;;;;;;;8.60;7.68;;;10.30;99.90;;;;;;5011406;28;20377;-82
2023/06/16 01:46:00;;;;;;;5.10;4.70;;;10.30;99.90;;;;;;5010969;28;20053;-82
2023/06/16 01:48:26;;;;;;;6.20;5.43;;;10.20;99.90;;;;;;5011160;28;20018;-82
2023/06/16 01:50:52;;;;;;;7.18;6.43;;;10.10;99.90;;;;;;5011154;28;20486;-82
2023/06/16 01:53:18;;;;;;;6.95;6.28;;;10.10;99.90;;;;;;5011131;28;20111;-81
2023/06/16 01:55:51;;;;;;;8.30;6.75;;;10.10;99.90;;;;;;5011648;28;20056;-82
2023/06/16 01:58:20;;;;;;;8.50;7.00;;;10.10;99.90;;;;;;5011072;28;20076;-82
2023/06/16 02:01:07;;;;;;;10.32;7.63;;;10.10;99.90;;;;;;5012255;28;20064;-81
2023/06/16 02:03:43;;;;;;;7.85;7.07;;;10.10;99.90;;;;;;5012636;28;20038;-82
2023/06/16 02:06:18;;;;;;;9.02;7.30;;;10.10;99.90;;;;;;5011243;28;20044;-82
2023/06/16 02:08:46;;;;;;;6.68;6.07;;;10.10;99.90;;;;;;5012467;28;20384;-82
2023/06/16 02:11:12;;;;;;;6.75;5.75;;;10.00;99.90;;;;;;5010969;28;20383;-82
2023/06/16 02:13:38;;;;;;;4.65;4.35;;;10.00;99.90;;;;;;5010859;28;20029;-82
2023/06/16 02:16:05;;;;;;;3.60;3.40;;;9.90;99.90;;;;;;5010946;28;20040;-81
2023/06/16 02:18:32;;;;;;;4.55;4.25;;;9.70;99.90;;;;;;5010828;28;20029;-82
2023/06/16 02:20:58;;;;;;;4.50;4.10;;;9.60;99.90;;;;;;5010860;28;20014;-81
2023/06/16 02:23:24;;;;;;;5.38;4.70;;;9.50;99.90;;;;;;5010719;28;20026;-82
2023/06/16 02:25:50;;;;;;;5.63;5.13;;;9.50;99.90;;;;;;5010690;28;20036;-81
2023/06/16 02:28:16;;;;;;;6.55;5.97;;;9.50;99.90;;;;;;5010570;28;20018;-81
2023/06/16 02:30:42;;;;;;;7.80;6.78;;;9.50;99.90;;;;;;5010620;28;20094;-81
2023/06/16 02:33:08;;;;;;;9.05;7.32;;;9.50;99.90;;;;;;5010523;28;20079;-81
2023/06/16 02:35:33;;;;;;;7.90;6.55;;;9.60;99.90;;;;;;5010448;28;20476;-81
2023/06/16 02:38:00;;;;;;;7.10;6.15;;;9.60;99.90;;;;;;5011571;28;20037;-82
2023/06/16 02:40:26;;;;;;;7.05;6.30;;;9.60;99.90;;;;;;5011821;28;20082;-81
2023/06/16 02:42:51;;;;;;;5.93;5.32;;;9.60;99.90;;;;;;5010326;28;20018;-81
2023/06/16 02:45:17;;;;;;;6.75;6.05;;;9.60;99.90;;;;;;5010793;28;20026;-81
2023/06/16 02:47:42;;;;;;;7.00;6.00;;;9.60;99.90;;;;;;5010449;28;20030;-81
2023/06/16 02:50:08;;;;;;;6.38;5.78;;;9.60;99.90;;;;;;5010228;28;20022;-81
2023/06/16 02:52:35;;;;;;;5.97;5.40;;;9.60;99.90;;;;;;5011648;28;20026;-81
2023/06/16 02:55:01;;;;;;;4.80;4.40;;;9.60;99.90;;;;;;5010274;28;20025;-81
2023/06/16 02:57:26;;;;;;;6.75;5.95;;;9.50;99.90;;;;;;5009289;28;20030;-81
2023/06/16 02:59:52;;;;;;;7.10;6.35;;;9.50;99.90;;;;;;5010135;28;20040;-81
2023/06/16 03:02:17;;;;;;;5.38;4.88;;;9.40;99.90;;;;;;5011254;28;20032;-81
2023/06/16 03:04:43;;;;;;;5.95;5.45;;;9.40;99.90;;;;;;5011467;28;20075;-80
2023/06/16 03:07:09;;;;;;;6.20;5.60;;;9.40;99.90;;;;;;5011306;28;20425;-80
2023/06/16 03:09:35;;;;;;;7.03;5.85;;;9.30;99.90;;;;;;5009968;28;20022;-81
2023/06/16 03:12:01;;;;;;;6.00;5.50;;;9.30;99.90;;;;;;5010685;27;20066;-81
2023/06/16 03:14:27;;;;;;;6.22;5.63;;;9.40;99.90;;;;;;5009882;28;20026;-81
2023/06/16 03:16:53;;;;;;;6.55;5.72;;;9.40;99.90;;;;;;5011160;28;20092;-81
2023/06/16 03:19:19;;;;;;;9.00;6.57;;;9.40;99.90;;;;;;5009831;28;20026;-81
2023/06/16 03:21:44;;;;;;;9.25;6.55;;;9.50;99.90;;;;;;5011737;28;20155;-80
2023/06/16 03:24:13;;;;;;;9.23;6.50;;;9.70;99.90;;;;;;5010274;28;20018;-80
2023/06/16 03:26:42;;;;;;;6.80;5.00;;;9.70;99.90;;;;;;5009942;28;20022;-80
2023/06/16 03:29:09;;;;;;;6.57;5.97;;;9.80;99.90;;;;;;5011191;28;20028;-80
2023/06/16 03:31:35;;;;;;;5.88;5.38;;;9.90;99.90;;;;;;5009752;28;20025;-81
2023/06/16 03:34:01;;;;;;;6.22;5.60;;;9.90;99.90;;;;;;5009855;28;20025;-81
2023/06/16 03:36:27;;;;;;;6.00;5.50;;;9.90;99.90;;;;;;5009585;28;20041;-82
2023/06/16 03:38:53;;;;;;;5.85;5.45;;;10.00;99.90;;;;;;5009568;28;20049;-82
2023/06/16 03:41:19;;;;;;;5.95;5.50;;;10.10;99.90;;;;;;5010851;28;20058;-82
2023/06/16 03:43:44;;;;;;;6.82;6.22;;;10.20;99.90;;;;;;5009563;28;20029;-82
2023/06/16 03:46:10;;;;;;;7.05;6.35;;;10.40;99.90;;;;;;5009189;28;20026;-82
2023/06/16 03:48:35;;;;;;;7.60;5.50;;;10.60;99.90;;;;;;5009376;28;20045;-82
2023/06/16 03:51:01;;;;;;;6.75;5.53;;;10.70;99.90;;;;;;5009236;28;20062;-81
2023/06/16 03:53:27;;;;;;;6.80;6.10;;;10.80;99.90;;;;;;5010518;28;20058;-82
2023/06/16 03:55:52;;;;;;;6.95;5.93;;;10.90;99.90;;;;;;5009159;28;20036;-83
2023/06/16 03:58:18;;;;;;;6.93;6.22;;;11.10;99.90;;;;;;5009270;28;20033;-83
2023/06/16 04:00:44;;;;;;;9.93;8.35;;;11.30;99.90;;;;;;5011631;28;20082;-82
2023/06/16 04:03:11;;;;;;;7.63;6.93;;;11.40;99.90;;;;;;5009575;28;20025;-83
2023/06/16 04:05:37;;;;;;;9.55;6.78;;;11.60;99.90;;;;;;5010655;28;20037;-83
2023/06/16 04:08:03;;;;;;;6.38;5.78;;;11.70;99.90;;;;;;5009354;28;20022;-83
2023/06/16 04:10:29;;;;;;;5.72;4.93;;;12.00;99.90;;;;;;5012461;28;20028;-83
2023/06/16 04:12:55;;;;;;;5.78;5.28;;;12.00;99.90;;;;;;5012430;28;20087;-83
2023/06/16 04:15:20;;;;;;;6.05;5.28;;;12.00;99.90;;;;;;5012686;28;20022;-80
2023/06/16 04:17:46;;;;;;;6.07;5.50;;;12.10;99.90;;;;;;5012746;28;20037;-80
2023/06/16 04:20:12;;;;;;;6.60;5.53;;;12.20;99.90;;;;;;5012820;28;20086;-79
2023/06/16 04:22:39;;;;;;;8.43;5.70;;;12.30;99.90;;;;;;5012407;28;20536;-79
2023/06/16 04:25:06;;;;;;;6.22;5.22;;;12.50;99.90;;;;;;5012532;28;20022;-79
2023/06/16 04:27:33;;;;;;;6.68;6.07;;;12.70;99.90;;;;;;5014016;28;20022;-79
2023/06/16 04:30:02;;;;;;;6.70;6.03;;;12.80;99.90;;;;;;5013671;28;20017;-80
2023/06/16 04:32:28;;;;;;;6.57;5.75;;;12.90;99.90;;;;;;5012347;28;20066;-80
2023/06/16 04:34:54;;;;;;;5.90;5.38;;;13.20;99.90;;;;;;5012190;28;20033;-80
2023/06/16 04:37:20;;;;;;;6.68;5.80;;;13.30;99.90;;;;;;5012373;28;20174;-80
2023/06/16 04:39:47;;;;;;;6.22;5.50;;;13.60;99.90;;;;;;5012338;28;20200;-80
2023/06/16 04:42:13;;;;;;;6.10;5.50;;;13.70;99.90;;;;;;5012324;28;20121;-80
2023/06/16 04:44:40;;;;;;;7.00;6.40;;;13.90;99.90;;;;;;5012222;28;20109;-80
2023/06/16 04:47:07;;;;;;;7.07;6.38;;;14.10;99.90;;;;;;5012673;28;20361;-81
2023/06/16 04:49:32;;;;;;;9.07;8.00;;;14.30;99.90;;;;;;5014298;28;20490;-79
2023/06/16 04:51:58;;;;;;;8.68;7.80;;;14.50;99.90;;;;;;5013427;28;20046;-79
2023/06/16 04:54:24;;;;;;;8.85;8.00;;;14.60;99.90;;;;;;5013440;28;20026;-81
2023/06/16 04:56:50;;;;;;;9.10;8.20;;;14.80;99.90;;;;;;5013254;28;20034;-81
2023/06/16 04:59:16;;;;;;;9.27;7.60;;;14.80;99.90;;;;;;5012014;28;20025;-79
2023/06/16 05:01:41;;;;;;;9.98;8.02;;;14.70;99.90;;;;;;5013330;28;20437;-81
2023/06/16 05:04:08;;;;;;;10.07;7.68;;;14.80;99.90;;;;;;5011966;28;20102;-80
2023/06/16 05:06:36;;;;;;;8.57;7.10;;;14.80;99.90;;;;;;5019257;28;20478;-82
2023/06/16 05:09:02;;;;;;;8.45;7.55;;;14.80;99.90;;;;;;5032645;28;20108;-82
2023/06/16 05:11:28;;;;;;;9.93;8.00;;;14.80;99.90;;;;;;5028134;28;20022;-80
2023/06/16 05:13:54;;;;;;;7.63;6.80;;;15.00;99.90;;;;;;5022065;28;20139;-81
2023/06/16 05:16:19;;;;;;;11.73;9.18;;;15.10;99.90;;;;;;5019810;28;20046;-84
2023/06/16 05:18:45;;;;;;;9.50;7.32;;;15.20;99.90;;;;;;5011454;28;20033;-83
2023/06/16 05:21:11;;;;;;;8.68;7.55;;;15.40;99.90;;;;;;5017562;28;20029;-83
2023/06/16 05:23:36;;;;;;;9.10;8.30;;;15.50;99.90;;;;;;5011284;28;20471;-83
2023/06/16 05:26:02;;;;;;;11.68;8.00;;;15.60;99.90;;;;;;5011464;28;20106;-83
2023/06/16 05:28:28;;;;;;;8.98;7.95;;;15.70;99.90;;;;;;5011366;28;20075;-84
2023/06/16 05:30:54;;;;;;;8.50;7.65;;;15.80;99.90;;;;;;5011353;28;20025;-82
2023/06/16 05:33:19;;;;;;;9.73;7.93;;;15.90;99.90;;;;;;5016034;28;20474;-83
2023/06/16 05:35:45;;;;;;;11.20;8.13;;;16.00;99.90;;;;;;5030845;28;20013;-83
2023/06/16 05:38:10;;;;;;;9.05;8.13;;;16.20;99.90;;;;;;5032123;28;20382;-81
2023/06/16 05:40:36;;;;;;;9.15;7.60;;;16.30;99.90;;;;;;5032291;28;20082;-83
2023/06/16 05:43:02;;;;;;;9.18;8.20;;;16.50;99.90;;;;;;5029690;28;20040;-82
2023/06/16 05:45:27;;;;;;;8.52;7.03;;;16.50;99.90;;;;;;5031966;28;20093;-82
2023/06/16 05:47:53;;;;;;;10.20;8.52;;;16.70;99.90;;;;;;5030638;28;20025;-82
2023/06/16 05:50:18;;;;;;;10.77;8.77;;;16.80;99.90;;;;;;5027179;28;20054;-81
2023/06/16 05:52:44;;;;;;;8.95;6.78;;;16.90;99.90;;;;;;5027239;28;20502;-82
2023/06/16 05:55:11;;;;;;;9.55;7.53;;;17.00;99.90;;;;;;5033820;28;20018;-82
2023/06/16 05:57:37;;;;;;;7.75;7.05;;;17.10;99.90;;;;;;5027122;28;20037;-83
2023/06/16 06:00:04;;;;;;;7.93;7.13;;;17.30;99.90;;;;;;5027921;28;20025;-82
2023/06/16 06:02:30;;;;;;;10.82;7.70;;;17.40;99.90;;;;;;5027798;28;20622;-83
2023/06/16 06:04:56;;;;;;;7.63;6.90;;;17.70;99.90;;;;;;5011028;28;20102;-81
2023/06/16 06:07:22;;;;;;;8.20;7.10;;;17.80;99.90;;;;;;5013486;28;20039;-82
2023/06/16 06:09:47;;;;;;;8.05;7.10;;;18.00;99.90;;;;;;5026476;28;20104;-82
2023/06/16 06:12:13;;;;;;;8.05;6.13;;;18.10;99.90;;;;;;5023224;28;21626;-83
2023/06/16 06:14:38;;;;;;;7.13;5.78;;;18.20;90.10;;;;;;5008900;28;20022;-82
2023/06/16 06:17:04;;;;;;;10.57;6.30;;;18.30;84.50;;;;;;5028253;28;20061;-82
2023/06/16 06:19:30;;;;;;;8.25;6.57;;;18.40;85.40;;;;;;5026438;28;20379;-82
2023/06/16 06:21:56;;;;;;;8.48;6.20;;;18.50;90.40;;;;;;5027767;28;20037;-82
2023/06/16 06:24:21;;;;;;;9.85;6.03;;;18.60;89.00;;;;;;5021120;28;20032;-83
2023/06/16 06:26:47;;;;;;;7.18;6.47;;;18.70;86.10;;;;;;5025695;28;20032;-83
2023/06/16 06:29:13;;;;;;;6.97;6.28;;;18.80;82.10;;;;;;5030189;28;20036;-82
2023/06/16 06:31:39;;;;;;;9.07;6.32;;;19.00;80.00;;;;;;5024824;28;20021;-82
2023/06/16 06:34:05;;;;;;;9.07;6.32;;;19.20;80.90;;;;;;5027700;28;20175;-82
2023/06/16 06:36:30;;;;;;;12.52;6.78;;;19.40;80.60;;;;;;5021827;28;20068;-83
2023/06/16 06:38:56;;;;;;;11.48;7.47;;;19.50;77.90;;;;;;5011173;28;20033;-82
2023/06/16 06:41:23;;;;;;;6.88;6.18;;;19.60;76.70;;;;;;5020687;28;20021;-82
2023/06/16 06:43:49;;;;;;;7.25;6.35;;;19.70;76.20;;;;;;5013196;28;20056;-82
2023/06/16 06:46:17;;;;;;;9.13;5.88;;;19.90;73.80;;;;;;5011808;28;20026;-82
2023/06/16 06:48:43;;;;;;;12.80;7.20;;;20.00;72.70;;;;;;5011541;28;20022;-82
2023/06/16 06:51:10;;;;;;;18.65;7.43;;;20.20;72.00;;;;;;5010003;28;20117;-83
2023/06/16 06:53:35;;;;;;;11.15;8.13;;;20.20;69.90;;;;;;5010134;28;20082;-83
2023/06/16 06:56:01;;;;;;;9.05;6.72;;;20.00;69.30;;;;;;5010245;28;20464;-82
2023/06/16 06:58:27;;;;;;;8.73;7.15;;;20.20;70.20;;;;;;5009334;28;20026;-83
2023/06/16 07:00:52;;;;;;;10.30;7.00;;;20.30;69.20;;;;;;5009312;28;20022;-82
2023/06/16 07:03:18;;;;;;;8.48;7.45;;;20.20;69.20;;;;;;5009261;28;20018;-82
2023/06/16 07:05:43;;;;;;;10.70;7.90;;;20.20;69.70;;;;;;5008137;28;20636;-82
2023/06/16 07:08:09;;;;;;;12.98;9.20;;;20.10;71.00;;;;;;5009153;28;20097;-82
2023/06/16 07:10:36;;;;;;;9.80;7.50;;;20.10;71.20;;;;;;5011726;28;20026;-82
2023/06/16 07:13:02;;;;;;;11.65;8.65;;;20.00;70.70;;;;;;5011652;28;20018;-82
2023/06/16 07:15:28;;;;;;;11.15;8.40;;;19.80;69.80;;;;;;5011330;28;20361;-82
2023/06/16 07:17:53;;;;;;;9.23;7.57;;;19.80;72.00;;;;;;5030616;28;20033;-82
2023/06/16 07:20:19;;;;;;;9.43;7.07;;;19.70;72.70;;;;;;5029578;28;20022;-82
2023/06/16 07:22:45;;;;;;;9.98;8.00;;;19.80;72.70;;;;;;5029660;28;20026;-82
2023/06/16 07:25:15;;;;;;;12.20;9.02;;;19.70;72.40;;;;;;5029906;28;20025;-82
2023/06/16 07:27:43;;;;;;;17.45;10.70;;;19.60;74.20;;;;;;5031055;28;20021;-82
2023/06/16 07:30:09;;;;;;;13.48;9.52;;;19.50;73.90;;;;;;5030707;28;20040;-82
2023/06/16 07:32:36;;;;;;;10.10;8.50;;;19.40;73.40;;;;;;5029288;28;20051;-82
2023/06/16 07:35:02;;;;;;;14.15;9.70;;;19.40;72.40;;;;;;5029320;28;20029;-82
2023/06/16 07:37:27;;;;;;;14.60;9.65;;;19.50;73.40;;;;;;5032088;28;20037;-82
2023/06/16 07:39:53;;;;;;;14.13;9.73;;;19.40;72.70;;;;;;5029246;28;20018;-82
2023/06/16 07:42:19;;;;;;;16.92;10.57;;;19.30;74.90;;;;;;5030748;28;20021;-82
2023/06/16 07:44:44;;;;;;;18.20;10.35;;;19.30;76.60;;;;;;5028975;28;20041;-82
2023/06/16 07:47:10;;;;;;;17.52;10.88;;;19.10;80.40;;;;;;5030485;28;20101;-82
2023/06/16 07:49:36;;;;;;;16.65;10.57;;;19.00;84.00;;;;;;5029182;28;20490;-82
2023/06/16 07:52:02;;;;;;;18.35;10.20;;;18.90;86.50;;;;;;5029102;28;20122;-83
2023/06/16 07:54:27;;;;;;;13.63;8.98;;;18.70;87.50;;;;;;5030300;28;20033;-82
2023/06/16 07:56:53;;;;;;;10.55;8.85;;;18.60;91.10;;;;;;5029001;28;20064;-82
2023/06/16 07:59:19;;;;;;;17.35;8.93;;;18.40;97.70;;;;;;5033236;28;20071;-82
2023/06/16 08:01:45;;;;;;;14.77;8.43;;;18.30;99.90;;;;;;5030664;28;20022;-82
2023/06/16 08:04:11;;;;;;;12.02;9.80;;;18.20;99.90;;;;;;5029035;28;20017;-82
2023/06/16 08:06:37;;;;;;;11.43;8.63;;;18.10;99.90;;;;;;5030223;28;20099;-82
2023/06/16 08:09:05;;;;;;;11.98;8.45;;;18.20;99.90;;;;;;5030244;28;20056;-82
2023/06/16 08:11:31;;;;;;;12.52;8.65;;;18.20;99.90;;;;;;5030150;28;20066;-82
2023/06/16 08:13:56;;;;;;;8.30;7.43;;;18.20;99.90;;;;;;5028754;28;20470;-82
2023/06/16 08:16:22;;;;;;;7.85;6.85;;;18.20;99.90;;;;;;5028804;28;20503;-82
2023/06/16 08:18:47;;;;;;;20.27;8.50;;;18.10;99.90;;;;;;5028761;28;20025;-82
2023/06/16 08:21:13;;;;;;;11.35;7.03;;;18.30;99.90;;;;;;5028837;28;20475;-82
2023/06/16 08:23:38;;;;;;;11.38;7.20;;;18.20;99.90;;;;;;5028665;28;20415;-82
2023/06/16 08:26:05;;;;;;;11.25;6.88;;;18.30;99.90;;;;;;5032853;28;20387;-82
2023/06/16 08:28:31;;;;;;;8.98;6.90;;;18.70;99.90;;;;;;5030100;28;20045;-82
2023/06/16 08:30:56;;;;;;;10.45;6.65;;;18.70;93.80;;;;;;5028627;28;20435;-82
2023/06/16 08:33:22;;;;;;;10.55;7.53;;;18.80;92.20;;;;;;5029953;28;20026;-82
2023/06/16 08:35:48;;;;;;;9.57;7.07;;;18.80;88.10;;;;;;5028583;28;20053;-83
2023/06/16 08:38:13;;;;;;;8.05;7.20;;;18.90;89.70;;;;;;5028464;28;20074;-82
2023/06/16 08:40:39;;;;;;;26.70;11.10;;;18.90;90.10;;;;;;5029680;28;20100;-82
2023/06/16 08:43:08;;;;;;;11.32;7.88;;;18.90;86.60;;;;;;5029803;28;20104;-82
2023/06/16 08:45:35;;;;;;;8.13;7.32;;;18.90;87.80;;;;;;5028537;28;20028;-82
2023/06/16 08:48:00;;;;;;;16.33;8.43;;;19.00;89.10;;;;;;5028302;28;20372;-83
2023/06/16 08:50:26;;;;;;;8.07;7.30;;;19.40;89.00;;;;;;5032767;28;20064;-82
2023/06/16 08:52:57;;;;;;;9.68;7.50;;;19.80;83.60;;;;;;5028356;28;20026;-83
2023/06/16 08:55:24;;;;;;;9.02;8.13;;;20.10;79.90;;;;;;5028619;28;20509;-83
2023/06/16 08:57:54;;;;;;;22.42;8.95;;;20.40;77.50;;;;;;5031580;28;20483;-83
2023/06/16 09:00:21;;;;;;;9.15;7.32;;;20.80;74.70;;;;;;5031811;28;20393;-83
2023/06/16 09:02:56;;;;;;;11.07;8.00;;;21.00;76.00;;;;;;5031590;28;20029;-83
2023/06/16 09:05:24;;;;;;;9.02;7.22;;;20.90;75.50;;;;;;5032807;28;20022;-82
2023/06/16 09:07:49;;;;;;;13.07;8.30;;;21.10;73.80;;;;;;5032795;28;20025;-83
2023/06/16 09:10:16;;;;;;;10.00;9.00;;;21.30;72.10;;;;;;5031511;28;20375;-83
2023/06/16 09:12:42;;;;;;;11.55;9.10;;;21.50;68.40;;;;;;5032691;28;20102;-83
2023/06/16 09:15:09;;;;;;;12.52;8.27;;;21.60;68.40;;;;;;5032938;28;20363;-83
2023/06/16 09:17:34;;;;;;;8.77;7.50;;;21.80;67.60;;;;;;5032445;28;20501;-83
2023/06/16 09:20:01;;;;;;;10.40;8.10;;;21.80;66.40;;;;;;5033140;28;20025;-82
2023/06/16 09:22:28;;;;;;;9.90;7.68;;;21.60;67.90;;;;;;5034266;28;20555;-82
2023/06/16 09:24:58;;;;;;;11.85;8.05;;;21.40;68.60;;;;;;5031257;28;20025;-82
2023/06/16 09:27:47;;;;;;;11.85;8.05;;;21.10;68.20;;;;;;5030212;28;20029;-83
2023/06/16 09:30:14;;;;;;;10.75;8.35;;;20.80;68.30;;;;;;5031221;28;20018;-82
2023/06/16 09:32:41;;;;;;;24.58;10.40;;;20.60;69.20;;;;;;5032414;28;20026;-82
2023/06/16 09:35:20;;;;;;;24.05;9.00;;;20.40;70.50;;;;;;5031252;28;20029;-82
2023/06/16 09:37:47;;;;;;;22.75;9.40;;;20.20;73.70;;;;;;5032377;28;20478;-82
2023/06/16 09:40:14;;;;;;;8.98;8.07;;;20.00;73.00;;;;;;5031124;28;20024;-82
2023/06/16 09:42:41;;;;;;;8.90;7.88;;;20.00;73.40;;;;;;5030962;28;20025;-83
2023/06/16 09:45:09;;;;;;;9.77;7.72;;;20.00;73.10;;;;;;5033194;28;20024;-82
2023/06/16 09:47:37;;;;;;;8.98;7.88;;;20.10;73.60;;;;;;5032312;28;20026;-82
2023/06/16 09:50:05;;;;;;;11.32;8.23;;;20.20;71.90;;;;;;5030775;28;20068;-82
2023/06/16 09:52:33;;;;;;;9.70;7.68;;;20.30;72.20;;;;;;5030971;28;20049;-82
2023/06/16 09:55:00;;;;;;;10.30;8.20;;;20.40;72.00;;;;;;5030738;28;20543;-82
2023/06/16 09:57:26;;;;;;;12.07;8.52;;;20.30;69.70;;;;;;5032198;28;20403;-82
2023/06/16 09:59:53;;;;;;;10.85;8.68;;;20.40;70.60;;;;;;5030662;28;20034;-82
2023/06/16 10:02:19;;;;;;;9.82;8.35;;;20.50;70.40;;;;;;5031934;28;20026;-82
2023/06/16 10:04:46;;;;;;;9.77;8.45;;;20.60;68.00;;;;;;5030728;28;20029;-82
2023/06/16 10:07:11;;;;;;;11.98;7.75;;;20.80;68.70;;;;;;5030472;28;20064;-83
2023/06/16 10:09:47;;;;;;;13.98;7.88;;;21.20;67.00;;;;;;5032837;28;20029;-83
2023/06/16 10:12:13;;;;;;;10.05;8.15;;;21.50;68.50;;;;;;5030762;28;20022;-83
2023/06/16 10:14:40;;;;;;;9.38;8.05;;;21.50;64.70;;;;;;5031783;28;20030;-83
2023/06/16 10:17:10;;;;;;;11.95;8.70;;;21.60;64.50;;;;;;5030417;28;20038;-83
2023/06/16 10:19:37;;;;;;;11.25;9.07;;;21.50;63.80;;;;;;5030426;28;20062;-83
2023/06/16 10:22:03;;;;;;;14.40;9.40;;;21.50;63.70;;;;;;5030429;28;20025;-83
2023/06/16 10:24:31;;;;;;;8.75;7.95;;;21.50;64.10;;;;;;5031525;28;20017;-83
2023/06/16 10:26:57;;;;;;;9.43;8.48;;;21.60;65.60;;;;;;5023425;28;20024;-83
2023/06/16 10:29:25;;;;;;;11.32;9.05;;;21.50;66.60;;;;;;5028767;28;20017;-83
2023/06/16 10:32:03;;;;;;;9.27;8.38;;;21.40;64.60;;;;;;5030160;28;20041;-82
2023/06/16 10:34:28;;;;;;;8.57;7.78;;;21.50;63.70;;;;;;5028931;28;20044;-83
2023/06/16 10:36:54;;;;;;;10.68;9.27;;;21.50;64.20;;;;;;5028567;28;20494;-83
2023/06/16 10:39:20;;;;;;;10.20;9.13;;;21.50;62.90;;;;;;5030152;28;20087;-83
2023/06/16 10:41:57;;;;;;;11.43;8.93;;;21.60;63.30;;;;;;5029119;28;20053;-82
2023/06/16 10:44:33;;;;;;;9.27;8.38;;;21.40;63.70;;;;;;5020918;27;20026;-82
2023/06/16 10:47:05;;;;;;;9.18;8.25;;;21.50;63.30;;;;;;5019944;28;20471;-83
2023/06/16 10:49:31;;;;;;;8.82;7.63;;;21.60;63.80;;;;;;5019473;28;20510;-82
2023/06/16 10:51:59;;;;;;;10.70;7.38;;;21.60;65.00;;;;;;5019112;28;20073;-82
2023/06/16 10:54:34;;;;;;;9.65;8.65;;;21.60;64.60;;;;;;5018708;28;20034;-82
2023/06/16 10:57:08;;;;;;;10.13;8.45;;;21.50;66.10;;;;;;5015969;28;20090;-82
2023/06/16 10:59:56;;;;;;;11.68;9.38;;;21.40;66.60;;;;;;5015523;27;20037;-82
2023/06/16 11:02:28;;;;;;;9.57;8.25;;;21.40;66.10;;;;;;5020349;28;20076;-83
2023/06/16 11:05:11;;;;;;;12.03;8.73;;;21.40;65.90;;;;;;5018259;28;20026;-82
2023/06/16 11:08:04;;;;;;;10.13;8.88;;;21.40;65.40;;;;;;5025989;28;20084;-83
2023/06/16 11:10:30;;;;;;;11.45;8.45;;;21.40;64.80;;;;;;5021042;28;20018;-80
2023/06/16 11:12:56;;;;;;;14.40;9.25;;;21.40;65.60;;;;;;5028046;28;20110;-81
2023/06/16 11:15:23;;;;;;;10.73;8.27;;;21.40;64.80;;;;;;5020951;28;20017;-82
2023/06/16 11:17:49;;;;;;;8.75;7.85;;;21.40;65.00;;;;;;5024114;28;20037;-81
2023/06/16 11:20:15;;;;;;;9.60;8.55;;;21.40;64.90;;;;;;5017967;28;20097;-81
2023/06/16 11:22:45;;;;;;;9.10;8.13;;;21.40;66.00;;;;;;5017070;27;20022;-81
2023/06/16 11:25:11;;;;;;;9.65;8.05;;;21.40;64.90;;;;;;5019103;28;20706;-81
2023/06/16 11:27:38;;;;;;;8.23;7.43;;;21.40;63.80;;;;;;5019112;28;20054;-82
2023/06/16 11:30:08;;;;;;;9.50;8.50;;;21.50;62.30;;;;;;5017299;28;20030;-81
2023/06/16 11:32:37;;;;;;;8.63;7.80;;;21.50;62.90;;;;;;5018516;28;20021;-82
2023/06/16 11:35:04;;;;;;;8.50;7.60;;;21.50;62.00;;;;;;5007861;28;20041;-82
2023/06/16 11:37:48;;;;;;;17.90;8.70;;;21.50;61.70;;;;;;5025195;28;20134;-82
2023/06/16 11:40:25;;;;;;;12.73;8.32;;;21.60;61.80;;;;;;5034746;28;20097;-82
2023/06/16 11:42:54;;;;;;;12.75;8.38;;;21.60;61.60;;;;;;5048911;28;20032;-81
2023/06/16 11:45:20;;;;;;;8.93;7.88;;;21.80;62.70;;;;;;5050116;28;20033;-82
2023/06/16 11:47:46;;;;;;;10.50;8.23;;;21.80;62.70;;;;;;5048820;28;20426;-82
2023/06/16 11:50:14;;;;;;;9.25;8.05;;;21.90;62.80;;;;;;5049749;28;20508;-82
2023/06/16 11:52:40;;;;;;;10.43;8.95;;;21.90;61.70;;;;;;5025116;28;20425;-82
2023/06/16 11:55:06;;;;;;;10.00;8.35;;;21.90;60.90;;;;;;5009100;28;20029;-82
2023/06/16 11:57:39;;;;;;;9.25;8.38;;;21.90;61.60;;;;;;5010151;28;20037;-79
2023/06/16 12:00:06;;;;;;;11.13;9.52;;;21.90;61.50;;;;;;5010493;28;20018;-83
2023/06/16 12:02:33;;;;;;;13.75;10.23;;;21.90;59.40;;;;;;5008991;28;20091;-83
2023/06/16 12:05:00;;;;;;;13.10;10.35;;;22.00;58.90;;;;;;5009208;28;20030;-80
2023/06/16 12:07:26;;;;;;;11.88;10.68;;;22.10;59.80;;;;;;5009130;28;20424;-83
2023/06/16 12:09:55;;;;;;;10.98;9.65;;;22.20;58.50;;;;;;5013505;28;20036;-82
2023/06/16 12:12:21;;;;;;;11.70;9.90;;;22.40;58.20;;;;;;5020319;28;20026;-81
2023/06/16 12:14:47;;;;;;;21.02;10.18;;;22.50;58.00;;;;;;5019721;28;20475;-83
2023/06/16 12:17:12;;;;;;;16.85;10.93;;;22.40;57.70;;;;;;5024241;28;20395;-82
2023/06/16 12:19:38;;;;;;;10.27;9.18;;;22.40;57.40;;;;;;5018452;28;20018;-79
2023/06/16 12:22:04;;;;;;;11.77;10.00;;;22.50;57.00;;;;;;5018795;28;20071;-82
2023/06/16 12:24:31;;;;;;;13.48;10.43;;;22.50;56.50;;;;;;5020298;28;20092;-79
2023/06/16 12:26:57;;;;;;;11.05;8.95;;;22.40;56.80;;;;;;5025026;28;20034;-79
2023/06/16 12:29:27;;;;;;;10.70;9.45;;;22.40;58.10;;;;;;5023230;28;20014;-81
2023/06/16 12:31:57;;;;;;;10.32;9.15;;;22.40;57.20;;;;;;5028944;28;20033;-80
2023/06/16 12:34:25;;;;;;;10.30;9.30;;;22.60;58.20;;;;;;5030020;28;20659;-82
2023/06/16 12:36:58;;;;;;;9.70;8.05;;;22.60;57.10;;;;;;5030338;28;20120;-82
2023/06/16 12:39:24;;;;;;;10.23;8.88;;;22.70;56.40;;;;;;5030026;28;20025;-82
2023/06/16 12:42:13;;;;;;;9.55;8.65;;;22.60;56.20;;;;;;5031277;28;20022;-80
2023/06/16 12:44:50;;;;;;;12.38;8.65;;;22.70;56.70;;;;;;5031969;28;20446;-81